Capel Saint Mary, United Kingdom
Current Conditions -  °F | °C
As of 1:50 PM on Thursday 23 Oct 2014 (Local Time) from EGUW Reporting Station
Broken Clouds Broken Clouds  
Wind Chill: 15°   Ceiling: 9000
Heat Index: 15°   Visibility: 6mi
Dew Point: 10°   Wind: 13mph
Humidity: 72%   Direction: 220°SW
Pressure: 30.06"   Gusts: NA
Location:  52°N, 1.04°E
Report Text: EGUW 231250Z 22011KT 9999 FEW024 BKN090 15/10 Q1018 BLU BECMG BKN020 WHT
Loading
Personal Weather Stations






























Interactive Weather Map
Tropical Storm Tracking
New forecast layout! Learn more

10-Day Weather Forecast

Advertisements
Track Severe Weather on mobile